Time;durP1;ratioP1;P1;durP2;ratioP2;P2;SDS_P1;SDS_P2;PMS_P1;PMS_P2;Temp;Humidity;BMP_temperature;BMP_pressure;BME280_temperature;BME280_humidity;BME280_pressure;Samples;Min_cycle;Max_cycle;Signal;HPM_P1;HPM_P2
2021/07/24 00:00:05;;;;;;;25.27;14.45;;;;;;;19.96;53.39;100043.31;5069851;28;20029;-23
2021/07/24 00:02:30;;;;;;;30.80;15.52;;;;;;;20.30;52.16;100048.75;5069562;28;20060;-23
2021/07/24 00:04:56;;;;;;;30.70;15.00;;;;;;;20.22;52.92;100038.53;5069909;28;20041;-23
2021/07/24 00:07:21;;;;;;;29.23;15.93;;;;;;;20.49;52.03;100040.72;5069759;28;20028;-23
2021/07/24 00:09:47;;;;;;;34.20;17.40;;;;;;;20.49;52.14;100054.25;5069900;28;20036;-24
2021/07/24 00:12:13;;;;;;;46.38;23.80;;;;;;;20.45;51.95;100050.50;5069719;28;20036;-23
2021/07/24 00:14:39;;;;;;;43.50;21.73;;;;;;;20.22;52.60;100052.06;5051786;28;20036;-23
2021/07/24 00:17:04;;;;;;;32.45;16.10;;;;;;;20.06;52.92;100054.91;5069772;28;20033;-24
2021/07/24 00:19:30;;;;;;;32.78;16.80;;;;;;;20.03;53.45;100039.22;5069531;28;20414;-24
2021/07/24 00:21:55;;;;;;;30.92;14.52;;;;;;;20.24;52.94;100055.28;5069611;28;20025;-23
2021/07/24 00:24:21;;;;;;;22.58;12.30;;;;;;;19.99;53.43;100046.28;5069690;28;20028;-24
2021/07/24 00:26:48;;;;;;;23.42;12.45;;;;;;;19.66;55.20;100056.75;5069260;28;20017;-24
2021/07/24 00:29:14;;;;;;;16.90;9.68;;;;;;;19.37;55.44;100053.94;5069507;28;20037;-24
2021/07/24 00:31:40;;;;;;;27.92;12.43;;;;;;;19.79;54.45;100054.53;5069532;28;20512;-24
2021/07/24 00:34:05;;;;;;;25.02;11.88;;;;;;;19.87;54.30;100048.53;5069296;28;20127;-23
2021/07/24 00:36:31;;;;;;;18.90;11.27;;;;;;;19.89;54.03;100049.06;5050915;28;20032;-24
2021/07/24 00:38:56;;;;;;;21.40;10.38;;;;;;;20.23;52.81;100056.41;5068955;28;20479;-24
2021/07/24 00:41:43;;;;;;;20.48;11.15;;;;;;;19.91;53.89;100036.06;5069123;28;20029;-24
2021/07/24 00:44:09;;;;;;;15.88;10.02;;;;;;;19.42;55.93;100044.97;5051447;28;20033;-24
2021/07/24 00:46:35;;;;;;;24.02;10.27;;;;;;;19.04;56.89;100029.19;5068908;28;20098;-23
2021/07/24 00:49:00;;;;;;;19.58;10.30;;;;;;;19.73;54.96;100045.63;5069015;28;20033;-24
2021/07/24 00:51:28;;;;;;;14.32;9.15;;;;;;;19.89;54.61;100048.25;5050633;28;20060;-23
2021/07/24 00:53:55;;;;;;;13.50;8.23;;;;;;;19.63;55.28;100051.88;5068703;28;20028;-24
2021/07/24 00:56:22;;;;;;;13.82;7.80;;;;;;;19.00;57.89;100043.50;5068908;28;20063;-24
2021/07/24 00:58:47;;;;;;;10.90;6.78;;;;;;;18.74;57.92;100024.66;5050722;28;20471;-23
2021/07/24 01:01:13;;;;;;;11.00;7.10;;;;;;;19.62;55.62;100044.06;5068752;28;20035;-23
2021/07/24 01:03:38;;;;;;;15.35;8.35;;;;;;;19.51;55.82;100046.00;5068942;28;20412;-23
2021/07/24 01:06:04;;;;;;;17.40;9.48;;;;;;;19.05;57.70;100040.81;5068684;28;20032;-25
2021/07/24 01:08:33;;;;;;;35.17;14.13;;;;;;;18.64;58.07;100032.78;5068387;28;20051;-23
2021/07/24 01:10:58;;;;;;;37.20;17.23;;;;;;;18.64;57.89;100035.50;5068682;28;20033;-23
2021/07/24 01:13:24;;;;;;;46.47;17.63;;;;;;;18.86;57.95;100049.50;5068195;28;20024;-23
2021/07/24 01:15:50;;;;;;;25.98;13.30;;;;;;;19.07;56.82;100033.22;5050667;28;20112;-24
2021/07/24 01:18:16;;;;;;;23.15;10.30;;;;;;;19.55;55.40;100035.44;5068549;28;20043;-24
2021/07/24 01:20:41;;;;;;;17.45;9.80;;;;;;;19.00;56.81;100038.13;5068172;28;20036;-24
2021/07/24 01:23:08;;;;;;;16.65;10.23;;;;;;;18.82;58.22;100043.03;5068211;28;20462;-23
2021/07/24 01:25:40;;;;;;;20.10;10.98;;;;;;;18.63;57.95;100036.56;5068250;28;20040;-24
2021/07/24 01:28:05;;;;;;;19.23;9.75;;;;;;;18.51;58.64;100036.03;5068451;28;20020;-23
2021/07/24 01:30:31;;;;;;;18.67;9.52;;;;;;;18.04;59.44;100037.94;5068196;28;20548;-24
2021/07/24 01:32:56;;;;;;;15.93;10.15;;;;;;;17.95;59.58;100040.38;5050366;28;20079;-24
2021/07/24 01:35:22;;;;;;;18.73;10.60;;;;;;;18.06;59.54;100025.81;5068097;28;20044;-24
2021/07/24 01:37:47;;;;;;;16.88;9.18;;;;;;;18.12;59.68;100020.41;5067950;28;20078;-23
2021/07/24 01:40:13;;;;;;;17.35;9.43;;;;;;;18.19;59.72;100035.25;5067947;28;20036;-23
2021/07/24 01:42:38;;;;;;;14.32;8.85;;;;;;;18.10;60.27;100042.25;5067572;28;20377;-23
2021/07/24 01:45:04;;;;;;;18.08;8.98;;;;;;;18.44;59.18;100033.63;5067997;28;20044;-24
2021/07/24 01:47:29;;;;;;;13.13;8.45;;;;;;;18.92;56.45;100007.09;5068104;28;20032;-23
2021/07/24 01:52:49;;;;;;;16.50;9.10;;;;;;;19.02;56.20;100030.53;5067498;28;20094;-24
2021/07/24 01:55:35;;;;;;;14.13;8.70;;;;;;;19.10;55.93;100004.84;5067600;28;20024;-24
2021/07/24 01:58:02;;;;;;;13.60;8.65;;;;;;;19.46;54.94;100019.00;5049952;28;20024;-23
2021/07/24 02:00:28;;;;;;;14.18;8.55;;;;;;;19.32;55.31;100002.56;5067336;28;20036;-23
2021/07/24 02:02:54;;;;;;;11.73;8.23;;;;;;;18.82;57.17;100016.03;5049880;28;20456;-22
2021/07/24 02:05:29;;;;;;;13.63;8.23;;;;;;;18.45;58.91;100025.25;5033344;28;20043;-23
2021/07/24 02:07:57;;;;;;;12.23;8.18;;;;;;;18.06;60.17;100025.00;5067605;28;20039;-23
2021/07/24 02:10:22;;;;;;;11.90;7.90;;;;;;;18.37;58.95;100019.56;5033202;28;20063;-22
2021/07/24 02:12:48;;;;;;;14.27;8.43;;;;;;;18.14;60.01;100013.66;5067045;28;20048;-23
2021/07/24 02:15:13;;;;;;;13.48;7.38;;;;;;;18.05;59.78;100008.00;5067439;28;20472;-22
2021/07/24 02:17:39;;;;;;;18.15;8.43;;;;;;;17.89;60.93;100025.25;5067299;28;20098;-23
2021/07/24 02:20:05;;;;;;;19.38;8.63;;;;;;;17.68;60.51;100017.09;5049505;28;20033;-22
2021/07/24 02:22:30;;;;;;;19.48;9.68;;;;;;;17.82;60.17;100012.00;5067030;28;20024;-23
2021/07/24 02:24:56;;;;;;;19.52;9.13;;;;;;;18.38;58.79;100019.31;5049435;28;20036;-22
2021/07/24 02:27:21;;;;;;;17.48;8.20;;;;;;;18.17;59.42;100025.81;5067130;28;20020;-23
2021/07/24 02:29:47;;;;;;;16.33;8.65;;;;;;;17.66;60.61;100005.78;5067301;28;20149;-22
2021/07/24 02:32:12;;;;;;;13.63;8.77;;;;;;;18.40;58.19;100024.44;5067390;28;20028;-22
2021/07/24 02:34:38;;;;;;;13.43;8.55;;;;;;;18.60;57.35;100007.41;5067171;28;20024;-23
2021/07/24 02:37:03;;;;;;;11.90;7.05;;;;;;;18.05;59.39;100024.19;5067048;28;20077;-23
2021/07/24 02:39:29;;;;;;;13.25;7.35;;;;;;;18.16;58.46;99999.91;5066972;28;20539;-22
2021/07/24 02:41:54;;;;;;;11.25;7.28;;;;;;;17.98;59.32;100033.63;5067312;28;20032;-22
2021/07/24 02:44:20;;;;;;;11.02;8.05;;;;;;;17.72;60.11;100030.06;5049204;28;20074;-23
2021/07/24 02:46:45;;;;;;;12.50;7.53;;;;;;;17.74;60.34;100027.91;5066935;28;20033;-22
2021/07/24 02:49:12;;;;;;;15.30;9.27;;;;;;;18.33;58.25;100035.53;5066730;28;20044;-23
2021/07/24 02:51:37;;;;;;;16.52;8.73;;;;;;;17.96;59.17;100036.59;5067090;28;20038;-22
2021/07/24 02:54:02;;;;;;;16.73;8.07;;;;;;;17.85;60.16;100032.25;5067112;28;20041;-23
2021/07/24 02:56:28;;;;;;;10.07;6.70;;;;;;;17.46;60.97;100016.50;5066782;28;20469;-23
2021/07/24 02:58:53;;;;;;;14.85;7.72;;;;;;;17.67;60.85;100028.97;5066851;28;20071;-23
2021/07/24 03:01:19;;;;;;;13.63;7.68;;;;;;;17.93;59.84;100023.63;5067053;28;20025;-23
2021/07/24 03:03:44;;;;;;;17.13;7.50;;;;;;;18.00;59.15;100018.81;5071101;28;20033;-23
2021/07/24 03:06:10;;;;;;;14.00;7.45;;;;;;;17.84;60.65;100036.84;5053177;28;20477;-22
2021/07/24 03:08:35;;;;;;;12.43;7.25;;;;;;;17.43;62.13;100035.94;5070957;28;20369;-22
2021/07/24 03:11:01;;;;;;;13.23;7.63;;;;;;;17.31;62.81;100029.97;5070884;28;20027;-22
2021/07/24 03:13:26;;;;;;;14.02;8.10;;;;;;;17.08;63.57;100021.25;5070613;28;20032;-23
2021/07/24 03:15:52;;;;;;;19.40;9.35;;;;;;;16.51;64.35;100038.94;5053057;28;20404;-22
2021/07/24 03:18:17;;;;;;;20.13;11.93;;;;;;;16.15;64.31;100024.41;5070789;28;20036;-22
2021/07/24 03:20:42;;;;;;;24.08;11.57;;;;;;;16.60;63.68;100036.56;5070552;28;20067;-23
2021/07/24 03:23:08;;;;;;;18.40;10.50;;;;;;;17.54;61.11;100051.03;5070791;28;20062;-23
2021/07/24 03:25:33;;;;;;;19.15;10.05;;;;;;;17.09;62.78;100044.41;5070462;28;20033;-23
2021/07/24 03:28:00;;;;;;;24.45;10.98;;;;;;;16.85;63.16;100044.81;5070444;28;20036;-22
2021/07/24 03:30:25;;;;;;;34.55;12.30;;;;;;;17.23;62.01;100034.78;5070321;28;20170;-22
2021/07/24 03:32:51;;;;;;;22.10;9.05;;;;;;;17.81;60.85;100044.63;5070612;28;20398;-23
2021/07/24 03:35:16;;;;;;;15.88;9.32;;;;;;;17.79;60.65;100038.69;5070066;28;20039;-23
2021/07/24 03:37:41;;;;;;;23.45;9.90;;;;;;;17.82;60.71;100052.47;5070110;28;20036;-23
2021/07/24 03:40:07;;;;;;;17.00;9.32;;;;;;;18.20;59.41;100044.16;5051120;28;20024;-22
2021/07/24 03:42:33;;;;;;;14.10;9.10;;;;;;;17.93;60.44;100050.63;5069794;28;20116;-23
2021/07/24 03:44:58;;;;;;;14.73;9.05;;;;;;;17.70;61.24;100049.22;5070542;28;20029;-22
2021/07/24 03:47:24;;;;;;;21.75;9.95;;;;;;;17.54;62.17;100051.03;5070562;28;20411;-22
2021/07/24 03:49:49;;;;;;;19.10;8.57;;;;;;;17.23;63.55;100050.94;5069713;28;20048;-22
2021/07/24 03:52:15;;;;;;;15.75;9.07;;;;;;;17.81;61.18;100039.25;5070268;28;20036;-22
2021/07/24 03:54:40;;;;;;;14.98;8.27;;;;;;;17.63;61.47;100056.72;5069940;28;20036;-22
2021/07/24 03:57:06;;;;;;;16.00;9.70;;;;;;;17.45;62.30;100050.75;5069777;28;20491;-23
2021/07/24 03:59:31;;;;;;;22.23;13.13;;;;;;;17.81;61.79;100053.53;5069894;28;20399;-22
2021/07/24 04:01:58;;;;;;;19.60;11.02;;;;;;;17.78;62.05;100058.66;5069782;28;20480;-23
2021/07/24 04:04:24;;;;;;;13.20;8.10;;;;;;;18.08;60.54;100049.81;5069473;28;20025;-22
2021/07/24 04:06:49;;;;;;;11.43;7.85;;;;;;;17.90;61.39;100063.81;5069928;28;20025;-23
2021/07/24 04:09:15;;;;;;;13.57;7.38;;;;;;;18.09;60.67;100067.63;5051914;28;20028;-23
2021/07/24 04:11:40;;;;;;;12.05;7.82;;;;;;;18.47;60.02;100058.19;5051926;28;20037;-22
2021/07/24 04:14:06;;;;;;;15.02;8.50;;;;;;;18.50;60.17;100062.25;5051414;28;20032;-22
2021/07/24 04:16:34;;;;;;;13.95;8.85;;;;;;;19.00;58.71;100059.72;5069402;28;20028;-23
2021/07/24 04:19:00;;;;;;;13.80;9.30;;;;;;;19.09;58.52;100063.50;5070002;28;20094;-22
2021/07/24 04:21:26;;;;;;;13.00;7.07;;;;;;;19.16;57.49;100058.59;5069762;28;20055;-22
2021/07/24 04:23:51;;;;;;;11.82;7.15;;;;;;;19.30;57.20;100056.13;5069738;28;20408;-23
2021/07/24 04:26:17;;;;;;;8.45;6.38;;;;;;;18.90;57.97;100054.34;5069522;28;20032;-22
2021/07/24 04:28:42;;;;;;;16.42;6.20;;;;;;;18.81;58.29;100057.63;5069161;28;20051;-23
2021/07/24 04:31:12;;;;;;;13.35;6.30;;;;;;;18.89;58.22;100060.84;5069677;28;20036;-22
2021/07/24 04:33:37;;;;;;;15.07;7.05;;;;;;;18.85;58.46;100058.69;5069637;28;20025;-22
2021/07/24 04:36:03;;;;;;;12.32;6.30;;;;;;;18.84;58.65;100067.91;5069203;28;20035;-22
2021/07/24 04:38:29;;;;;;;13.38;7.68;;;;;;;18.90;58.98;100066.00;5069104;28;20028;-23
2021/07/24 04:40:54;;;;;;;13.10;6.85;;;;;;;18.85;59.34;100071.41;5069347;28;20035;-22
2021/07/24 04:43:19;;;;;;;15.20;6.43;;;;;;;19.09;59.04;100063.50;5069160;28;20025;-23
2021/07/24 04:45:45;;;;;;;17.33;7.43;;;;;;;19.11;58.71;100060.53;5069183;28;20412;-23
2021/07/24 04:48:11;;;;;;;11.85;6.78;;;;;;;19.09;58.98;100062.69;5051064;28;20040;-23
2021/07/24 04:50:47;;;;;;;12.00;7.47;;;;;;;19.18;58.59;100056.44;5068773;28;20536;-22
2021/07/24 04:53:13;;;;;;;10.55;7.18;;;;;;;19.01;59.38;100055.97;5052184;28;20408;-22
2021/07/24 04:55:38;;;;;;;13.25;8.23;;;;;;;19.05;59.92;100041.63;5034421;28;20476;-23
2021/07/24 04:58:08;;;;;;;14.02;8.30;;;;;;;19.19;59.13;100066.16;5068913;28;20032;-22
2021/07/24 05:00:38;;;;;;;15.38;8.35;;;;;;;19.38;58.72;100066.34;5068571;28;20029;-23
2021/07/24 05:03:04;;;;;;;17.23;9.73;;;;;;;19.41;57.87;100044.19;5068780;28;20024;-22
2021/07/24 05:05:30;;;;;;;14.35;9.10;;;;;;;19.41;58.28;100054.16;5068690;28;20108;-22
2021/07/24 05:07:55;;;;;;;14.52;9.50;;;;;;;19.71;57.27;100055.13;5068693;28;20037;-22
2021/07/24 05:10:20;;;;;;;14.85;8.88;;;;;;;19.74;57.55;100057.28;5068676;28;20041;-22
2021/07/24 05:12:46;;;;;;;11.13;7.97;;;;;;;19.79;57.04;100049.13;5050499;28;20041;-22
2021/07/24 05:15:11;;;;;;;10.93;8.50;;;;;;;20.34;56.23;100063.34;5068577;28;20040;-22
2021/07/24 05:17:40;;;;;;;14.77;8.35;;;;;;;20.44;55.43;100070.56;5068526;28;20052;-22
2021/07/24 05:20:07;;;;;;;13.57;7.65;;;;;;;20.45;55.44;100078.41;5068901;28;20139;-23
2021/07/24 05:22:32;;;;;;;12.20;7.90;;;;;;;20.51;55.26;100062.09;5068322;28;20029;-22
2021/07/24 05:24:58;;;;;;;13.90;8.00;;;;;;;20.77;54.66;100073.53;5067285;28;20082;-23
2021/07/24 05:27:23;;;;;;;11.57;7.57;;;;;;;20.92;54.78;100073.38;5068261;28;20408;-23
2021/07/24 05:29:49;;;;;;;11.52;8.13;;;;;;;20.77;54.98;100068.91;5068213;28;20082;-22
2021/07/24 05:32:14;;;;;;;10.30;7.20;;;;;;;20.90;54.60;100072.03;5068448;28;20032;-22
2021/07/24 05:34:40;;;;;;;13.95;7.63;;;;;;;21.07;54.28;100070.50;5067925;28;20037;-22
2021/07/24 05:37:05;;;;;;;12.20;6.97;;;;;;;21.03;54.51;100071.38;5067989;28;20029;-22
2021/07/24 05:39:31;;;;;;;10.38;7.00;;;;;;;21.24;53.84;100056.47;5068024;28;20044;-23
2021/07/24 05:41:56;;;;;;;9.40;6.43;;;;;;;21.44;53.10;100070.91;5068187;28;20028;-23
2021/07/24 05:44:22;;;;;;;10.57;6.32;;;;;;;21.23;54.20;100065.72;5067845;28;20029;-22
2021/07/24 05:46:47;;;;;;;9.70;6.90;;;;;;;21.47;53.56;100062.19;5067784;28;20025;-23
2021/07/24 05:49:12;;;;;;;10.07;6.25;;;;;;;21.62;52.92;100067.41;5067943;28;20068;-22
2021/07/24 05:51:39;;;;;;;11.70;6.78;;;;;;;21.76;52.73;100072.09;5067564;28;20462;-22
2021/07/24 05:54:07;;;;;;;9.52;6.78;;;;;;;21.53;52.50;100052.06;5067710;28;20419;-22
2021/07/24 05:56:34;;;;;;;10.90;6.82;;;;;;;21.64;52.99;100062.50;5067390;28;20557;-23
2021/07/24 05:58:59;;;;;;;12.30;6.75;;;;;;;22.09;52.30;100064.84;5050221;28;20119;-23
2021/07/24 06:01:25;;;;;;;9.93;6.00;;;;;;;22.27;51.45;100060.47;5067801;28;20036;-23
2021/07/24 06:03:50;;;;;;;9.88;5.32;;;;;;;22.37;51.70;100063.06;5067711;28;20036;-23
2021/07/24 06:06:15;;;;;;;7.72;5.38;;;;;;;22.42;51.56;100054.00;5067411;28;20024;-23
2021/07/24 06:08:41;;;;;;;9.43;6.43;;;;;;;22.57;51.46;100067.31;5067429;28;20040;-22
2021/07/24 06:11:06;;;;;;;9.93;6.20;;;;;;;22.46;52.00;100058.53;5067360;28;20043;-23
2021/07/24 06:13:32;;;;;;;9.85;5.88;;;;;;;22.75;51.56;100059.38;5067231;28;20040;-23
2021/07/24 06:15:58;;;;;;;9.88;5.75;;;;;;;22.59;51.33;100064.28;5067610;28;20385;-23
2021/07/24 06:18:23;;;;;;;7.53;5.43;;;;;;;22.74;50.87;100064.03;5067097;28;20211;-23
2021/07/24 06:20:49;;;;;;;8.00;5.13;;;;;;;22.78;50.14;100062.31;5067744;28;20043;-22
2021/07/24 06:23:15;;;;;;;9.13;5.78;;;;;;;22.91;50.41;100058.00;5067435;28;20061;-22
2021/07/24 06:25:42;;;;;;;10.90;5.80;;;;;;;22.88;50.81;100047.69;5067168;28;20028;-23
2021/07/24 06:28:07;;;;;;;9.57;5.70;;;;;;;22.98;50.07;100057.59;5067168;28;20079;-22
2021/07/24 06:30:36;;;;;;;12.40;5.75;;;;;;;23.44;49.64;100059.41;5067425;28;20040;-23
2021/07/24 06:33:02;;;;;;;8.23;5.45;;;;;;;23.66;48.28;100054.00;5067131;28;20108;-22
2021/07/24 06:35:27;;;;;;;9.90;6.28;;;;;;;23.77;48.15;100061.97;5066881;28;20515;-23
2021/07/24 06:37:53;;;;;;;7.80;5.20;;;;;;;23.52;48.32;100036.91;5067555;28;20162;-23
2021/07/24 06:40:19;;;;;;;10.75;5.95;;;;;;;23.81;48.33;100046.63;5067127;28;20036;-23
2021/07/24 06:42:44;;;;;;;9.95;5.43;;;;;;;23.98;47.06;100049.47;5066957;28;20033;-23
2021/07/24 06:45:10;;;;;;;8.63;5.65;;;;;;;24.31;46.27;100054.69;5067419;28;20058;-23
2021/07/24 06:47:35;;;;;;;9.35;5.80;;;;;;;24.50;45.88;100048.25;5067317;28;20143;-23
2021/07/24 06:50:01;;;;;;;9.50;5.65;;;;;;;24.60;45.25;100058.88;5066780;28;20111;-23
2021/07/24 06:52:26;;;;;;;11.65;5.75;;;;;;;24.82;46.39;100042.47;5066775;28;20033;-22
2021/07/24 06:54:52;;;;;;;8.93;5.75;;;;;;;24.50;46.05;100056.41;5067028;28;20043;-22
2021/07/24 06:57:17;;;;;;;9.15;5.55;;;;;;;24.66;46.50;100050.28;5066883;28;20024;-22
2021/07/24 06:59:43;;;;;;;12.18;6.72;;;;;;;24.83;46.15;100049.53;5067121;28;20037;-21
2021/07/24 07:02:10;;;;;;;12.23;6.30;;;;;;;24.95;45.58;100050.88;5066869;28;20485;-22
2021/07/24 07:04:35;;;;;;;14.80;6.22;;;;;;;25.19;43.93;100042.25;5066488;28;20036;-22
2021/07/24 07:07:01;;;;;;;10.65;6.25;;;;;;;25.17;44.27;100047.22;5066816;28;20036;-22
2021/07/24 07:09:26;;;;;;;12.48;5.43;;;;;;;25.13;44.14;100044.34;5066786;28;20115;-22
2021/07/24 07:11:56;;;;;;;19.92;6.07;;;;;;;25.23;43.63;100041.34;5066712;28;20029;-22
2021/07/24 07:14:21;;;;;;;12.68;5.57;;;;;;;25.39;43.29;100049.06;5066725;28;20029;-22
2021/07/24 07:16:46;;;;;;;10.70;6.05;;;;;;;25.44;44.19;100038.81;5066528;28;20070;-22
2021/07/24 07:19:12;;;;;;;13.45;6.47;;;;;;;25.76;43.25;100046.84;5066676;28;20033;-22
2021/07/24 07:21:37;;;;;;;9.68;6.05;;;;;;;25.85;41.47;100042.22;5067061;28;20028;-22
2021/07/24 07:24:03;;;;;;;16.23;6.18;;;;;;;25.76;41.60;100041.41;5066791;28;20036;-22
2021/07/24 07:26:28;;;;;;;9.77;5.57;;;;;;;25.59;42.40;100034.81;5066430;28;20024;-22
2021/07/24 07:28:55;;;;;;;11.40;5.15;;;;;;;25.71;42.76;100033.38;5048922;28;20032;-22
2021/07/24 07:31:21;;;;;;;10.33;5.50;;;;;;;25.79;42.35;100040.78;5066901;28;20063;-22
2021/07/24 07:33:47;;;;;;;10.30;5.13;;;;;;;26.09;40.18;100043.66;5066748;28;20032;-22
2021/07/24 07:36:12;;;;;;;20.55;6.22;;;;;;;26.26;39.93;100046.38;5066301;28;20075;-22
2021/07/24 07:38:38;;;;;;;10.77;4.70;;;;;;;25.94;40.32;100048.50;5066307;28;20028;-22
2021/07/24 07:41:03;;;;;;;10.40;5.35;;;;;;;26.11;40.53;100052.34;5066486;28;20036;-22
2021/07/24 07:43:28;;;;;;;9.15;5.18;;;;;;;26.55;39.06;100039.38;5066444;28;20040;-22
2021/07/24 07:45:54;;;;;;;7.97;5.45;;;;;;;26.62;37.76;100046.00;5066645;28;20411;-22
2021/07/24 07:48:20;;;;;;;8.27;4.35;;;;;;;26.86;37.74;100045.38;5067939;28;20032;-22
2021/07/24 07:50:45;;;;;;;6.40;4.20;;;;;;;27.00;35.92;100047.09;5069625;28;20052;-22
2021/07/24 07:53:11;;;;;;;9.15;4.30;;;;;;;26.78;36.50;100048.16;5069974;28;20028;-22
2021/07/24 07:55:37;;;;;;;8.75;4.72;;;;;;;27.01;37.24;100049.53;5069629;28;20028;-22
2021/07/24 07:58:10;;;;;;;6.90;4.07;;;;;;;26.95;35.72;100031.69;5069027;28;20028;-22
2021/07/24 08:00:35;;;;;;;6.72;4.32;;;;;;;27.15;36.58;100041.06;5068645;28;20551;-22
2021/07/24 08:03:01;;;;;;;11.38;4.28;;;;;;;27.14;34.88;100038.66;5069771;28;20488;-21
2021/07/24 08:05:26;;;;;;;11.60;5.22;;;;;;;27.28;37.17;100043.91;5070201;28;20029;-22
2021/07/24 08:07:52;;;;;;;10.98;4.55;;;;;;;27.07;35.97;100025.47;5069500;28;20028;-22
2021/07/24 08:10:19;;;;;;;8.95;4.90;;;;;;;26.82;36.00;100049.13;5069841;28;20032;-22
2021/07/24 08:12:45;;;;;;;;;;;;;;;27.01;36.92;100040.50;5070045;28;20037;-22
2021/07/24 08:15:11;;;;;;;7.68;4.38;;;;;;;26.89;36.30;100041.22;5070010;28;19923;-22
2021/07/24 08:17:36;;;;;;;8.60;4.97;;;;;;;26.85;37.95;100038.31;5069251;28;20407;-22
2021/07/24 08:20:03;;;;;;;8.82;5.10;;;;;;;27.04;37.40;100021.47;5069449;28;20029;-22
2021/07/24 08:22:29;;;;;;;10.25;4.63;;;;;;;27.20;35.04;100021.72;5069280;28;20024;-22
2021/07/24 08:24:54;;;;;;;7.13;4.55;;;;;;;27.34;34.42;100023.41;5069706;28;20036;-22
2021/07/24 08:27:20;;;;;;;9.85;4.70;;;;;;;27.52;35.51;100024.88;5069186;28;20033;-22
2021/07/24 08:29:45;;;;;;;7.15;4.63;;;;;;;27.68;33.98;100018.81;5069327;28;20069;-21
2021/07/24 08:32:11;;;;;;;8.98;4.80;;;;;;;27.92;35.32;100020.91;5068981;28;20485;-21
2021/07/24 08:34:36;;;;;;;11.85;4.75;;;;;;;27.93;35.23;100026.06;5068862;28;20032;-23
2021/07/24 08:37:02;;;;;;;7.93;4.65;;;;;;;27.99;33.65;100008.25;5069148;28;20912;-24
2021/07/24 08:39:28;;;;;;;6.65;4.57;;;;;;;27.97;34.53;100023.41;5069307;28;20133;-24
2021/07/24 08:41:53;;;;;;;11.65;5.10;;;;;;;28.18;34.10;100021.44;5069228;28;20032;-24
2021/07/24 08:44:18;;;;;;;9.88;4.50;;;;;;;28.21;34.32;100019.97;5069167;28;20032;-24
2021/07/24 08:46:44;;;;;;;8.13;4.60;;;;;;;28.42;35.71;100019.88;5068767;28;20024;-24
2021/07/24 08:49:12;;;;;;;8.55;4.30;;;;;;;28.39;32.75;100010.41;5068812;28;20033;-24
2021/07/24 08:51:38;;;;;;;;;;;;;;;28.62;33.45;100012.75;5069019;28;20045;-24
2021/07/24 08:54:05;;;;;;;8.02;4.28;;;;;;;28.95;32.77;100009.09;5068964;28;19916;-24
2021/07/24 08:56:34;;;;;;;8.35;4.68;;;;;;;28.95;33.01;100004.41;5068697;28;20523;-24
2021/07/24 08:58:59;;;;;;;8.13;4.90;;;;;;;29.02;31.91;100014.81;5068682;28;20036;-22
2021/07/24 09:01:25;;;;;;;10.30;5.18;;;;;;;29.07;31.18;100014.56;5034615;28;20050;-22
2021/07/24 09:03:51;;;;;;;8.73;4.53;;;;;;;29.09;33.76;100006.78;5050182;28;20028;-22
2021/07/24 09:06:22;;;;;;;8.95;4.82;;;;;;;29.01;34.40;100000.28;5067235;28;20161;-22
2021/07/24 09:08:49;;;;;;;8.07;4.72;;;;;;;29.11;33.54;100001.78;5068556;28;20496;-22
2021/07/24 09:11:14;;;;;;;9.20;4.10;;;;;;;28.78;34.17;99994.44;5068076;28;20115;-22
2021/07/24 09:13:40;;;;;;;8.32;4.70;;;;;;;29.34;31.80;100010.34;5067779;28;20036;-22
2021/07/24 09:16:06;;;;;;;7.25;4.78;;;;;;;29.48;30.87;100009.94;5068710;28;20025;-22
2021/07/24 09:18:32;;;;;;;7.50;4.72;;;;;;;29.76;31.46;100009.19;5068233;28;20024;-22
2021/07/24 09:20:57;;;;;;;11.65;7.07;;;;;;;29.67;30.78;100006.56;5068113;28;20036;-22
2021/07/24 09:23:27;;;;;;;12.73;6.72;;;;;;;29.64;31.40;99994.31;5050911;28;20055;-22
2021/07/24 09:25:53;;;;;;;15.68;7.53;;;;;;;29.49;31.26;99995.06;5068654;28;20357;-22
2021/07/24 09:28:18;;;;;;;12.65;7.85;;;;;;;29.91;31.03;100000.19;5067759;28;20599;-22
2021/07/24 09:30:44;;;;;;;15.95;7.18;;;;;;;30.15;29.29;100003.97;5068365;28;20040;-22
2021/07/24 09:33:11;;;;;;;9.27;5.97;;;;;;;29.77;29.24;99980.53;5068393;28;20031;-22
2021/07/24 09:35:37;;;;;;;;;;;;;;;30.00;30.97;99997.28;5068587;28;20032;-22
2021/07/24 09:38:10;;;;;;;11.40;6.60;;;;;;;29.96;30.49;99991.69;5068314;28;19962;-22
2021/07/24 09:40:36;;;;;;;11.32;6.78;;;;;;;30.44;29.91;99989.84;5050633;28;20032;-22
2021/07/24 09:43:02;;;;;;;17.15;10.45;;;;;;;30.27;28.04;99989.34;5068124;28;20020;-22
2021/07/24 09:45:28;;;;;;;17.27;9.65;;;;;;;30.68;29.52;99993.53;5067964;28;20028;-22
2021/07/24 09:47:55;;;;;;;13.52;6.18;;;;;;;31.01;28.07;99984.09;5068002;28;20024;-22
2021/07/24 09:50:20;;;;;;;10.77;5.13;;;;;;;31.10;28.60;99992.97;5067514;28;20080;-22
2021/07/24 09:52:53;;;;;;;8.75;4.18;;;;;;;31.27;27.25;99986.25;5049792;28;20082;-22
2021/07/24 09:55:24;;;;;;;9.73;4.65;;;;;;;31.24;27.53;99985.03;5067881;28;20119;-22
2021/07/24 09:57:52;;;;;;;7.10;4.35;;;;;;;31.50;26.52;99982.81;5067692;28;20048;-22
2021/07/24 10:00:27;;;;;;;9.65;4.80;;;;;;;31.38;26.75;99978.19;5067504;28;20064;-22
2021/07/24 10:03:03;;;;;;;7.13;4.00;;;;;;;30.72;29.27;99977.91;5067861;28;20040;-22
2021/07/24 10:05:39;;;;;;;6.90;4.30;;;;;;;31.37;28.53;99973.88;5067602;28;20112;-22
2021/07/24 10:08:13;;;;;;;8.40;4.30;;;;;;;31.85;27.95;99971.69;5067460;28;20094;-22
2021/07/24 10:10:40;;;;;;;8.00;4.10;;;;;;;31.75;27.96;99978.59;5067032;28;20085;-22
2021/07/24 10:13:09;;;;;;;7.22;3.75;;;;;;;31.82;27.23;99964.16;5067564;28;20043;-22
2021/07/24 10:15:39;;;;;;;6.60;3.58;;;;;;;31.56;26.88;99971.13;5067384;28;20040;-22
2021/07/24 10:18:06;;;;;;;7.50;3.85;;;;;;;31.59;26.83;99966.88;5065890;28;20039;-22
2021/07/24 10:20:42;;;;;;;6.70;3.42;;;;;;;31.32;26.39;99968.63;5059099;28;20025;-22
2021/07/24 10:23:08;;;;;;;6.22;3.63;;;;;;;31.19;27.91;99962.47;5038675;28;20590;-22
2021/07/24 10:25:58;;;;;;;9.35;3.65;;;;;;;31.19;27.13;99952.22;5057655;28;20029;-22
2021/07/24 10:28:53;;;;;;;6.80;3.55;;;;;;;31.58;26.94;99963.28;5044361;28;20025;-22
2021/07/24 10:31:30;;;;;;;12.38;3.97;;;;;;;31.75;27.26;99955.72;5048702;28;20067;-22
2021/07/24 10:34:01;;;;;;;10.70;3.57;;;;;;;32.03;26.76;99956.28;5048860;28;20526;-22
2021/07/24 10:36:36;;;;;;;13.02;3.88;;;;;;;32.40;25.86;99958.47;5049004;28;20035;-22
2021/07/24 10:39:22;;;;;;;8.25;4.13;;;;;;;31.74;26.49;99948.63;5067216;28;20035;-22
2021/07/24 10:42:11;;;;;;;7.35;3.90;;;;;;;31.22;27.28;99956.22;5064900;28;20059;-22
2021/07/24 10:44:40;;;;;;;6.53;3.55;;;;;;;31.35;27.36;99932.88;5054097;28;20090;-22
2021/07/24 10:47:09;;;;;;;9.57;4.15;;;;;;;32.03;26.43;99950.75;5067266;28;20127;-22
2021/07/24 10:49:35;;;;;;;6.65;3.40;;;;;;;32.12;27.02;99947.78;5066703;28;20519;-22
2021/07/24 10:52:04;;;;;;;7.82;4.03;;;;;;;31.50;27.43;99947.78;5067007;28;20037;-22
2021/07/24 10:54:30;;;;;;;7.88;3.75;;;;;;;30.74;27.46;99947.28;5066844;28;20500;-22
2021/07/24 10:56:56;;;;;;;7.30;3.45;;;;;;;30.55;28.54;99926.00;5066790;28;20040;-23
2021/07/24 10:59:25;;;;;;;7.95;4.38;;;;;;;30.32;30.08;99937.66;5067180;28;20031;-22
2021/07/24 11:01:51;;;;;;;11.38;4.05;;;;;;;30.56;29.82;99946.84;5066801;28;20039;-22
2021/07/24 11:04:38;;;;;;;7.68;3.90;;;;;;;30.95;28.11;99944.22;5066631;28;20028;-23
2021/07/24 11:07:12;;;;;;;6.28;3.67;;;;;;;31.08;27.63;99934.69;5066921;28;20047;-22
2021/07/24 11:09:42;;;;;;;8.18;4.15;;;;;;;32.35;26.18;99933.97;5066924;28;20144;-22
2021/07/24 11:12:17;;;;;;;8.60;4.22;;;;;;;32.71;25.27;99934.53;5048837;28;20033;-23
2021/07/24 11:14:49;;;;;;;9.68;3.70;;;;;;;32.77;26.31;99927.50;5049182;28;20052;-22
2021/07/24 11:17:18;;;;;;;7.25;3.60;;;;;;;32.53;25.18;99933.44;5048582;28;20043;-22
2021/07/24 11:19:44;;;;;;;6.22;3.63;;;;;;;31.42;27.19;99937.75;5066892;28;20048;-22
2021/07/24 11:22:19;;;;;;;7.40;3.65;;;;;;;31.01;27.07;99931.78;5066923;28;20028;-22